Time;durP1;ratioP1;P1;durP2;ratioP2;P2;SDS_P1;SDS_P2;PMS_P1;PMS_P2;Temp;Humidity;BMP_temperature;BMP_pressure;BME280_temperature;BME280_humidity;BME280_pressure;Samples;Min_cycle;Max_cycle;Signal;HPM_P1;HPM_P2
2022/09/11 00:00:56;;;;;;;14.40;12.60;;;15.70;99.90;;;;;;5054791;28;20470;-68
2022/09/11 00:03:23;;;;;;;14.70;13.20;;;15.70;99.90;;;;;;5052808;28;20037;-68
2022/09/11 00:05:50;;;;;;;18.75;13.45;;;15.60;99.90;;;;;;5036448;28;20053;-69
2022/09/11 00:08:18;;;;;;;17.63;15.50;;;15.60;99.90;;;;;;5047819;28;20030;-69
2022/09/11 00:10:47;;;;;;;16.33;13.27;;;15.60;99.90;;;;;;5038375;28;20098;-70
2022/09/11 00:13:21;;;;;;;16.27;13.57;;;15.60;99.90;;;;;;5037051;28;20052;-69
2022/09/11 00:15:50;;;;;;;;;;;15.60;99.90;;;;;;5037772;28;20487;-70
2022/09/11 00:18:20;;;;;;;15.40;13.65;;;15.50;99.90;;;;;;5041527;28;19920;-69
2022/09/11 00:20:51;;;;;;;15.25;13.75;;;15.40;99.90;;;;;;5037236;28;20084;-69
2022/09/11 00:23:18;;;;;;;19.55;14.02;;;15.40;99.90;;;;;;5030202;28;20132;-69
2022/09/11 00:25:45;;;;;;;17.30;13.75;;;15.40;99.90;;;;;;5036651;28;20064;-69
2022/09/11 00:28:19;;;;;;;15.98;14.27;;;15.30;99.90;;;;;;5035835;28;20443;-69
2022/09/11 00:30:46;;;;;;;15.52;13.73;;;15.40;99.90;;;;;;5035203;28;20049;-70
2022/09/11 00:33:13;;;;;;;14.57;13.07;;;15.40;99.90;;;;;;5035081;28;20099;-70
2022/09/11 00:35:40;;;;;;;16.25;13.40;;;15.30;99.90;;;;;;5035690;28;20034;-69
2022/09/11 00:38:07;;;;;;;16.50;13.13;;;15.30;99.90;;;;;;5035122;28;20352;-69
2022/09/11 00:40:44;;;;;;;16.13;14.43;;;15.20;99.90;;;;;;5035090;28;20038;-69
2022/09/11 00:43:11;;;;;;;17.05;12.98;;;15.30;99.90;;;;;;5035309;28;20368;-70
2022/09/11 00:45:37;;;;;;;15.52;12.63;;;15.20;99.90;;;;;;5034932;28;20077;-69
2022/09/11 00:48:04;;;;;;;16.98;13.23;;;15.20;99.90;;;;;;5023750;28;20379;-69
2022/09/11 00:50:31;;;;;;;14.52;12.52;;;15.20;99.90;;;;;;5035060;28;20049;-69
2022/09/11 00:53:02;;;;;;;14.27;10.73;;;15.10;99.90;;;;;;5034800;28;20041;-69
2022/09/11 00:55:31;;;;;;;11.98;10.68;;;15.00;99.90;;;;;;5035050;28;20056;-69
2022/09/11 00:58:14;;;;;;;13.35;11.00;;;14.90;99.90;;;;;;5024946;28;20484;-68
2022/09/11 01:00:43;;;;;;;12.82;11.45;;;14.90;99.90;;;;;;5034298;28;20476;-68
2022/09/11 01:03:09;;;;;;;14.18;11.13;;;14.90;99.90;;;;;;5034773;28;20464;-68
2022/09/11 01:05:38;;;;;;;14.23;10.85;;;14.90;99.90;;;;;;5034455;28;20124;-68
2022/09/11 01:08:05;;;;;;;11.68;10.07;;;14.90;99.90;;;;;;5034713;28;20033;-69
2022/09/11 01:10:37;;;;;;;14.18;10.82;;;14.90;99.90;;;;;;5034467;28;20162;-69
2022/09/11 01:13:16;;;;;;;11.90;10.07;;;14.90;99.90;;;;;;5035021;28;20037;-68
2022/09/11 01:16:04;;;;;;;12.05;10.45;;;14.90;99.90;;;;;;5034488;28;20045;-69
2022/09/11 01:18:38;;;;;;;15.23;10.13;;;14.90;99.90;;;;;;5034387;28;20124;-69
2022/09/11 01:21:34;;;;;;;12.55;10.68;;;14.80;99.90;;;;;;5034533;28;20050;-69
2022/09/11 01:24:12;;;;;;;11.38;10.02;;;14.80;99.90;;;;;;5034613;28;20049;-69
2022/09/11 01:27:00;;;;;;;15.38;9.93;;;14.70;99.90;;;;;;5034758;28;20156;-68
2022/09/11 01:29:51;;;;;;;13.18;10.27;;;14.70;99.90;;;;;;5034602;28;20057;-69
2022/09/11 01:32:43;;;;;;;10.57;8.93;;;14.70;99.90;;;;;;5033601;28;20059;-69
2022/09/11 01:35:34;;;;;;;12.35;8.95;;;14.60;99.90;;;;;;5034365;28;20045;-68
2022/09/11 01:38:05;;;;;;;16.08;10.02;;;14.60;99.90;;;;;;5034169;28;20072;-68
2022/09/11 01:40:44;;;;;;;11.73;9.55;;;14.60;99.90;;;;;;5034277;28;20418;-68
2022/09/11 01:43:16;;;;;;;12.25;10.27;;;14.60;99.90;;;;;;5034734;28;20046;-68
2022/09/11 01:45:46;;;;;;;11.57;9.18;;;14.60;99.90;;;;;;5034196;28;20049;-69
2022/09/11 01:48:17;;;;;;;13.02;9.55;;;14.60;99.90;;;;;;5033895;28;20463;-68
2022/09/11 01:50:46;;;;;;;12.07;10.50;;;14.50;99.90;;;;;;5034008;28;20088;-69
2022/09/11 01:53:15;;;;;;;13.95;10.85;;;14.50;99.90;;;;;;5034134;28;20387;-68
2022/09/11 01:55:56;;;;;;;13.27;9.70;;;14.50;99.90;;;;;;5034138;28;20041;-68
2022/09/11 01:58:29;;;;;;;11.25;8.68;;;14.50;99.90;;;;;;5034077;28;20056;-69
2022/09/11 02:01:03;;;;;;;14.20;10.65;;;14.40;99.90;;;;;;5034288;28;20049;-69
2022/09/11 02:03:54;;;;;;;14.07;10.63;;;14.50;99.90;;;;;;5034137;28;20038;-68
2022/09/11 02:07:04;;;;;;;12.18;10.30;;;14.40;99.90;;;;;;5033891;28;20041;-70
2022/09/11 02:09:46;;;;;;;13.50;11.38;;;14.40;99.90;;;;;;5033913;28;20107;-68
2022/09/11 02:12:15;;;;;;;12.57;11.38;;;14.40;99.90;;;;;;5034074;28;20056;-69
2022/09/11 02:14:45;;;;;;;11.55;10.35;;;14.40;99.90;;;;;;5034276;28;20099;-69
2022/09/11 02:17:48;;;;;;;14.50;9.98;;;14.40;99.90;;;;;;5033804;28;20446;-68
2022/09/11 02:20:14;;;;;;;13.57;10.13;;;14.40;99.90;;;;;;5037402;28;20463;-69
2022/09/11 02:22:41;;;;;;;10.73;9.63;;;14.50;99.90;;;;;;5037574;28;20467;-69
2022/09/11 02:25:07;;;;;;;18.17;10.65;;;14.50;99.90;;;;;;5043769;28;20045;-70
2022/09/11 02:27:33;;;;;;;13.63;9.82;;;14.50;99.90;;;;;;5054536;28;20081;-69
2022/09/11 02:29:59;;;;;;;13.52;10.25;;;14.40;99.90;;;;;;5054969;28;20037;-69
2022/09/11 02:32:26;;;;;;;14.80;11.13;;;14.40;99.90;;;;;;5055834;28;20045;-68
2022/09/11 02:34:54;;;;;;;15.85;10.68;;;14.40;99.90;;;;;;5054669;28;20045;-69
2022/09/11 02:37:54;;;;;;;12.52;9.43;;;14.40;99.90;;;;;;5055898;28;20518;-68
2022/09/11 02:40:38;;;;;;;12.15;10.88;;;14.40;99.90;;;;;;5055757;28;20139;-70
2022/09/11 02:43:38;;;;;;;13.27;11.15;;;14.40;99.90;;;;;;5046889;28;20041;-69
2022/09/11 02:46:35;;;;;;;13.35;10.05;;;14.40;99.90;;;;;;5056216;28;20057;-68
2022/09/11 02:49:12;;;;;;;10.98;9.85;;;14.40;99.90;;;;;;5055952;28;20057;-69
2022/09/11 02:51:58;;;;;;;11.43;10.23;;;14.40;99.90;;;;;;5054212;28;20060;-69
2022/09/11 02:54:48;;;;;;;12.88;11.57;;;14.40;99.90;;;;;;5054187;28;20040;-68
2022/09/11 02:57:23;;;;;;;13.07;11.68;;;14.40;99.90;;;;;;5054139;28;20047;-69
2022/09/11 03:00:01;;;;;;;13.50;11.63;;;14.30;99.90;;;;;;5055679;28;20086;-68
2022/09/11 03:02:29;;;;;;;11.63;9.98;;;14.30;99.90;;;;;;5045581;28;20044;-68
2022/09/11 03:04:55;;;;;;;12.45;10.45;;;14.40;99.90;;;;;;5054185;28;20044;-69
2022/09/11 03:07:24;;;;;;;13.52;10.38;;;14.40;99.90;;;;;;5055456;28;20041;-69
2022/09/11 03:09:50;;;;;;;12.27;10.85;;;14.40;99.90;;;;;;5048885;28;20041;-68
2022/09/11 03:12:16;;;;;;;11.27;10.18;;;14.40;99.90;;;;;;5039431;28;20098;-69
2022/09/11 03:14:42;;;;;;;12.82;10.93;;;14.30;99.90;;;;;;5038152;28;20395;-68
2022/09/11 03:17:08;;;;;;;12.00;9.88;;;14.40;99.90;;;;;;5022115;28;20452;-69
2022/09/11 03:19:34;;;;;;;13.15;11.77;;;14.40;99.90;;;;;;5039448;28;20491;-69
2022/09/11 03:22:01;;;;;;;13.65;11.32;;;14.40;99.90;;;;;;5038340;28;20051;-68
2022/09/11 03:24:27;;;;;;;13.82;12.45;;;14.30;99.90;;;;;;5036199;28;20041;-69
2022/09/11 03:26:53;;;;;;;14.15;12.57;;;14.20;99.90;;;;;;5036299;28;20052;-69
2022/09/11 03:29:18;;;;;;;17.17;13.02;;;14.10;99.90;;;;;;5036247;28;20037;-69
2022/09/11 03:31:44;;;;;;;15.02;13.13;;;14.20;99.90;;;;;;5036447;28;20041;-68
2022/09/11 03:34:10;;;;;;;16.35;13.27;;;14.10;99.90;;;;;;5036727;28;20045;-70
2022/09/11 03:36:35;;;;;;;14.20;12.35;;;14.10;99.90;;;;;;5036444;28;20505;-69
2022/09/11 03:39:01;;;;;;;12.73;11.43;;;14.20;99.90;;;;;;5036154;28;20451;-70
2022/09/11 03:41:27;;;;;;;14.32;12.23;;;14.10;99.90;;;;;;5026072;28;20116;-69
2022/09/11 03:43:53;;;;;;;12.65;11.35;;;14.10;99.90;;;;;;5036360;28;20079;-69
2022/09/11 03:46:18;;;;;;;16.02;12.35;;;14.20;99.90;;;;;;5036620;28;20255;-69
2022/09/11 03:48:45;;;;;;;13.73;11.13;;;14.10;99.90;;;;;;5036205;28;20041;-68
2022/09/11 03:51:13;;;;;;;12.90;11.55;;;14.20;99.90;;;;;;5036063;28;20123;-68
2022/09/11 03:53:40;;;;;;;13.55;12.05;;;14.10;99.90;;;;;;5036426;28;20037;-69
2022/09/11 03:56:05;;;;;;;15.93;12.93;;;14.10;99.90;;;;;;5036060;28;20137;-69
2022/09/11 03:58:31;;;;;;;15.07;11.57;;;14.20;99.90;;;;;;5036103;28;20084;-69
2022/09/11 04:00:57;;;;;;;16.63;12.77;;;14.10;99.90;;;;;;5036229;28;20495;-70
2022/09/11 04:03:22;;;;;;;13.50;12.18;;;14.10;99.90;;;;;;5035824;28;20047;-69
2022/09/11 04:06:00;;;;;;;14.48;12.80;;;14.10;99.90;;;;;;5036042;28;20037;-68
2022/09/11 04:08:26;;;;;;;13.00;11.60;;;14.10;99.90;;;;;;5035800;28;20120;-70
2022/09/11 04:10:56;;;;;;;15.38;12.85;;;14.10;99.90;;;;;;5035498;28;20042;-68
2022/09/11 04:13:27;;;;;;;14.73;12.48;;;14.10;99.90;;;;;;5035741;28;20052;-68
2022/09/11 04:15:52;;;;;;;15.02;12.90;;;14.00;99.90;;;;;;5035768;28;20049;-69
2022/09/11 04:18:18;;;;;;;13.85;12.45;;;14.00;99.90;;;;;;5035756;28;20049;-68
2022/09/11 04:20:43;;;;;;;15.02;11.73;;;14.00;99.90;;;;;;5035744;28;20140;-68
2022/09/11 04:23:09;;;;;;;16.33;12.32;;;14.00;99.90;;;;;;5035172;28;20045;-69
2022/09/11 04:25:34;;;;;;;14.95;12.45;;;13.90;99.90;;;;;;5035437;28;20068;-70
2022/09/11 04:28:00;;;;;;;15.85;12.40;;;13.90;99.90;;;;;;5035673;28;20483;-68
2022/09/11 04:30:26;;;;;;;16.27;14.18;;;13.90;99.90;;;;;;5035349;28;20102;-68
2022/09/11 04:32:51;;;;;;;14.73;12.73;;;13.90;99.90;;;;;;5017739;28;20052;-69
2022/09/11 04:35:17;;;;;;;13.35;11.95;;;13.80;99.90;;;;;;5017679;28;20041;-69
2022/09/11 04:37:43;;;;;;;13.38;11.98;;;13.90;99.90;;;;;;5035139;28;20127;-69
2022/09/11 04:40:09;;;;;;;15.48;12.50;;;13.90;99.90;;;;;;5034271;28;20072;-69
2022/09/11 04:42:35;;;;;;;15.00;12.77;;;13.80;99.90;;;;;;5035083;28;20049;-68
2022/09/11 04:45:00;;;;;;;13.68;12.07;;;13.80;99.90;;;;;;5035201;28;20038;-68
2022/09/11 04:47:27;;;;;;;12.85;11.48;;;13.80;99.90;;;;;;5035308;28;20049;-69
2022/09/11 04:49:53;;;;;;;15.43;11.27;;;13.80;99.90;;;;;;5034852;28;20356;-69
2022/09/11 04:52:19;;;;;;;16.27;13.70;;;13.80;99.90;;;;;;5035152;28;20437;-68
2022/09/11 04:54:45;;;;;;;13.77;12.38;;;13.80;99.90;;;;;;5034895;28;20084;-69
2022/09/11 04:57:11;;;;;;;13.80;12.50;;;13.80;99.90;;;;;;5034950;28;20084;-69
2022/09/11 04:59:37;;;;;;;15.05;12.00;;;13.80;99.90;;;;;;5035126;28;20120;-69
2022/09/11 05:02:03;;;;;;;13.70;12.20;;;13.70;99.90;;;;;;5034657;28;20052;-68
2022/09/11 05:04:30;;;;;;;14.82;11.63;;;13.70;99.90;;;;;;5034869;28;20045;-69
2022/09/11 05:06:55;;;;;;;16.23;14.52;;;13.70;99.90;;;;;;5034883;28;20045;-68
2022/09/11 05:09:21;;;;;;;16.60;14.80;;;13.70;99.90;;;;;;5034773;28;20378;-69
2022/09/11 05:11:47;;;;;;;15.52;13.93;;;13.60;99.90;;;;;;5034925;28;20045;-69
2022/09/11 05:14:12;;;;;;;15.95;12.85;;;13.60;99.90;;;;;;5034607;28;20049;-68
2022/09/11 05:16:38;;;;;;;14.18;12.77;;;13.60;99.90;;;;;;5034474;28;20064;-69
2022/09/11 05:19:04;;;;;;;15.38;12.02;;;13.70;99.90;;;;;;5034654;28;20048;-69
2022/09/11 05:21:31;;;;;;;13.73;12.20;;;13.70;99.90;;;;;;5034437;28;20041;-69
2022/09/11 05:23:59;;;;;;;13.73;12.32;;;13.70;99.90;;;;;;5034565;28;20132;-70
2022/09/11 05:26:36;;;;;;;15.05;11.52;;;13.60;99.90;;;;;;5049524;28;20459;-69
2022/09/11 05:29:07;;;;;;;13.23;11.07;;;13.60;99.90;;;;;;5051499;28;20029;-69
2022/09/11 05:31:33;;;;;;;14.40;11.82;;;13.60;99.90;;;;;;5051122;28;20444;-68
2022/09/11 05:34:02;;;;;;;14.73;11.48;;;13.60;99.90;;;;;;5053278;28;20049;-69
2022/09/11 05:36:29;;;;;;;15.07;12.95;;;13.70;99.90;;;;;;5051426;28;20119;-70
2022/09/11 05:38:56;;;;;;;15.75;12.90;;;13.70;99.90;;;;;;5052425;28;20099;-68
2022/09/11 05:41:21;;;;;;;16.15;14.30;;;13.70;99.90;;;;;;5052348;28;20048;-68
2022/09/11 05:43:47;;;;;;;18.10;14.82;;;13.70;99.90;;;;;;5051384;28;20042;-70
2022/09/11 05:46:15;;;;;;;16.50;14.80;;;13.70;99.90;;;;;;5053043;28;20037;-69
2022/09/11 05:48:42;;;;;;;17.27;15.43;;;13.80;99.90;;;;;;5051392;28;20363;-69
2022/09/11 05:51:13;;;;;;;16.52;14.82;;;13.80;99.90;;;;;;5051176;28;20055;-68
2022/09/11 05:53:39;;;;;;;19.33;16.45;;;13.80;99.90;;;;;;5056928;28;20041;-69
2022/09/11 05:56:16;;;;;;;19.60;16.50;;;13.90;99.90;;;;;;5055253;28;20072;-68
2022/09/11 05:58:43;;;;;;;17.58;15.73;;;13.90;99.90;;;;;;5055314;28;20055;-68
2022/09/11 06:01:12;;;;;;;20.83;16.15;;;13.90;99.90;;;;;;5056958;28;20106;-71
2022/09/11 06:03:38;;;;;;;17.48;15.68;;;14.00;99.90;;;;;;5055164;28;20110;-68
2022/09/11 06:06:06;;;;;;;17.98;15.80;;;14.00;99.90;;;;;;5054985;28;20055;-70
2022/09/11 06:08:35;;;;;;;18.05;16.13;;;14.00;99.90;;;;;;5057003;28;20041;-69
2022/09/11 06:11:05;;;;;;;16.80;14.73;;;14.00;99.90;;;;;;5055081;28;20075;-68
2022/09/11 06:13:37;;;;;;;17.13;15.30;;;14.10;99.90;;;;;;5055357;28;20059;-69
2022/09/11 06:16:04;;;;;;;17.00;15.30;;;14.00;99.90;;;;;;5046978;28;20049;-69
2022/09/11 06:18:30;;;;;;;19.20;16.33;;;14.20;99.90;;;;;;5056089;28;20068;-69
2022/09/11 06:21:03;;;;;;;22.30;17.52;;;14.20;99.90;;;;;;5029123;28;20053;-70
2022/09/11 06:23:28;;;;;;;19.38;16.23;;;14.30;99.90;;;;;;5045709;28;20459;-68
2022/09/11 06:26:02;;;;;;;20.50;17.02;;;14.40;99.90;;;;;;5020832;28;20059;-69
2022/09/11 06:28:27;;;;;;;16.33;14.68;;;14.50;99.90;;;;;;5055581;28;20045;-67
2022/09/11 06:30:53;;;;;;;21.20;16.88;;;14.50;99.90;;;;;;5055746;28;20055;-69
2022/09/11 06:33:19;;;;;;;17.58;15.70;;;14.40;99.90;;;;;;5054840;28;20405;-72
2022/09/11 06:36:02;;;;;;;18.58;15.05;;;14.50;99.90;;;;;;5056342;28;20041;-68
2022/09/11 06:38:30;;;;;;;18.60;16.40;;;14.50;99.90;;;;;;5045792;28;20102;-69
2022/09/11 06:40:56;;;;;;;22.30;19.90;;;14.50;99.90;;;;;;5054546;28;20041;-69
2022/09/11 06:43:22;;;;;;;18.67;16.77;;;14.60;99.90;;;;;;5055988;28;20060;-67
2022/09/11 06:45:47;;;;;;;23.48;19.38;;;14.70;99.90;;;;;;5054882;28;20354;-69
2022/09/11 06:48:17;;;;;;;20.95;18.77;;;14.90;99.90;;;;;;5054369;28;20320;-69
2022/09/11 06:50:46;;;;;;;20.45;18.35;;;14.90;99.90;;;;;;5038826;28;20363;-71
2022/09/11 06:53:16;;;;;;;22.67;20.17;;;15.00;99.90;;;;;;5054366;28;20074;-69
2022/09/11 06:55:42;;;;;;;24.48;19.20;;;15.20;99.90;;;;;;5052294;28;20358;-71
2022/09/11 06:58:07;;;;;;;21.10;18.80;;;15.20;99.90;;;;;;5044400;28;20490;-71
2022/09/11 07:00:35;;;;;;;21.08;16.67;;;15.30;99.90;;;;;;5044508;28;20065;-72
2022/09/11 07:03:01;;;;;;;19.80;17.15;;;15.40;99.90;;;;;;5043055;28;20049;-72
2022/09/11 07:05:27;;;;;;;19.25;15.80;;;15.50;99.90;;;;;;5026055;28;20064;-70
2022/09/11 07:07:54;;;;;;;23.00;15.55;;;15.50;99.90;;;;;;5043721;28;20126;-71
2022/09/11 07:10:21;;;;;;;22.13;16.42;;;15.50;99.90;;;;;;5042948;28;20103;-71
2022/09/11 07:12:46;;;;;;;19.90;15.57;;;15.60;99.90;;;;;;5043051;28;20444;-71
2022/09/11 07:15:13;;;;;;;19.40;17.40;;;15.70;99.90;;;;;;5043888;28;20048;-75
2022/09/11 07:17:39;;;;;;;21.75;17.73;;;15.80;99.90;;;;;;5044637;28;20046;-73
2022/09/11 07:20:07;;;;;;;19.70;16.65;;;15.90;99.90;;;;;;5043971;28;20052;-72
2022/09/11 07:22:33;;;;;;;19.83;17.65;;;16.00;99.90;;;;;;5026317;28;20108;-71
2022/09/11 07:24:59;;;;;;;22.25;18.60;;;16.00;99.90;;;;;;5044354;28;20100;-70
2022/09/11 07:27:25;;;;;;;19.95;17.95;;;16.10;99.90;;;;;;5043539;28;20056;-69
2022/09/11 07:29:51;;;;;;;18.70;16.77;;;16.20;99.90;;;;;;5044086;28;20033;-72
2022/09/11 07:32:17;;;;;;;17.25;15.45;;;16.20;99.90;;;;;;5042431;28;20426;-71
2022/09/11 07:34:42;;;;;;;21.33;17.42;;;16.30;99.90;;;;;;5043622;28;20455;-70
2022/09/11 07:37:08;;;;;;;21.00;17.40;;;16.40;99.90;;;;;;5044914;28;20064;-70
2022/09/11 07:39:33;;;;;;;20.08;17.98;;;16.40;99.90;;;;;;5045400;28;20098;-73
2022/09/11 07:41:59;;;;;;;23.13;17.10;;;16.50;99.90;;;;;;5044431;28;20286;-71
2022/09/11 07:44:24;;;;;;;17.35;14.85;;;16.50;99.90;;;;;;5042723;28;20118;-69
2022/09/11 07:46:50;;;;;;;16.02;14.10;;;16.50;99.90;;;;;;5046797;28;20099;-70
2022/09/11 07:49:16;;;;;;;17.48;14.70;;;16.60;99.90;;;;;;5034000;28;20052;-71
2022/09/11 07:51:42;;;;;;;16.00;14.30;;;16.60;99.90;;;;;;5057177;28;20455;-69
2022/09/11 07:54:11;;;;;;;18.42;15.02;;;16.80;99.90;;;;;;5058672;28;20137;-70
2022/09/11 07:56:36;;;;;;;14.25;12.75;;;16.80;99.90;;;;;;5036524;28;20093;-70
2022/09/11 07:59:06;;;;;;;13.50;10.57;;;16.90;99.90;;;;;;5053019;28;20194;-71
2022/09/11 08:01:32;;;;;;;13.80;11.35;;;17.00;99.90;;;;;;5053194;28;20040;-71
2022/09/11 08:04:03;;;;;;;12.63;11.35;;;17.00;99.90;;;;;;5051281;28;20045;-71
2022/09/11 08:06:31;;;;;;;11.40;8.05;;;17.00;99.90;;;;;;5042103;28;20091;-70
2022/09/11 08:08:59;;;;;;;11.85;8.48;;;17.10;99.90;;;;;;5043927;28;20106;-70
2022/09/11 08:11:27;;;;;;;10.30;8.30;;;17.10;99.90;;;;;;5043031;28;20048;-70
2022/09/11 08:13:54;;;;;;;10.45;8.35;;;17.10;99.90;;;;;;5042793;28;20052;-71
2022/09/11 08:16:23;;;;;;;10.65;9.32;;;17.20;99.90;;;;;;5042913;28;20041;-69
2022/09/11 08:18:49;;;;;;;12.27;7.32;;;17.30;99.90;;;;;;5054630;28;20050;-70
2022/09/11 08:21:15;;;;;;;9.00;7.57;;;17.30;99.90;;;;;;5054829;28;20095;-70
2022/09/11 08:23:42;;;;;;;10.05;7.40;;;17.60;99.90;;;;;;5036994;28;20452;-70
2022/09/11 08:26:09;;;;;;;9.48;7.22;;;17.60;99.90;;;;;;5036673;28;20535;-70
2022/09/11 08:28:37;;;;;;;7.85;6.90;;;17.80;99.90;;;;;;5035226;28;20067;-71
2022/09/11 08:31:04;;;;;;;12.38;9.55;;;17.90;99.90;;;;;;5035537;28;20115;-71
2022/09/11 08:33:32;;;;;;;12.57;9.57;;;18.10;99.90;;;;;;5035242;28;20049;-71
2022/09/11 08:35:58;;;;;;;12.32;8.20;;;18.10;99.90;;;;;;5034923;28;20482;-71
2022/09/11 08:38:24;;;;;;;8.80;7.55;;;18.30;99.90;;;;;;5035324;28;20136;-71
2022/09/11 08:40:50;;;;;;;10.15;8.10;;;18.30;99.90;;;;;;5035065;28;20499;-71
2022/09/11 08:43:32;;;;;;;12.75;8.07;;;18.50;99.90;;;;;;5035291;28;20049;-71
2022/09/11 08:46:03;;;;;;;9.25;7.50;;;18.60;99.90;;;;;;5035122;28;20041;-70
2022/09/11 08:48:52;;;;;;;8.57;7.13;;;18.70;99.90;;;;;;5035095;28;20116;-71
2022/09/11 08:51:18;;;;;;;9.10;7.00;;;18.70;99.90;;;;;;5034984;28;20053;-72
2022/09/11 08:53:44;;;;;;;7.18;6.38;;;18.80;99.90;;;;;;5035016;28;20117;-71
2022/09/11 08:56:22;;;;;;;8.27;5.75;;;18.80;99.90;;;;;;5017667;28;20045;-71
2022/09/11 08:59:16;;;;;;;6.40;5.20;;;18.80;99.90;;;;;;5034851;28;20117;-71
2022/09/11 09:02:05;;;;;;;6.63;5.35;;;18.70;99.90;;;;;;5034737;28;20053;-72
2022/09/11 09:04:57;;;;;;;8.25;5.80;;;18.60;99.90;;;;;;5034587;28;20050;-71
2022/09/11 09:07:43;;;;;;;8.32;5.43;;;18.50;99.90;;;;;;5027639;28;20418;-70
2022/09/11 09:10:39;;;;;;;9.50;5.85;;;18.50;99.90;;;;;;5017709;28;20049;-72
2022/09/11 09:13:35;;;;;;;8.57;5.63;;;18.40;99.90;;;;;;5034939;28;20041;-70
2022/09/11 09:16:13;;;;;;;6.55;5.35;;;18.50;99.90;;;;;;5034908;28;20380;-71
2022/09/11 09:18:54;;;;;;;6.13;4.55;;;18.40;99.90;;;;;;5034463;28;20124;-70
2022/09/11 09:21:30;;;;;;;7.25;4.72;;;18.50;99.90;;;;;;5034155;28;20456;-71
2022/09/11 09:23:59;;;;;;;8.00;3.85;;;18.50;99.90;;;;;;5034418;28;20136;-71
2022/09/11 09:26:38;;;;;;;5.75;4.40;;;18.60;99.90;;;;;;5049341;28;20076;-71
2022/09/11 09:29:12;;;;;;;8.38;4.60;;;18.60;99.90;;;;;;5051430;28;20037;-71
2022/09/11 09:31:40;;;;;;;6.75;4.82;;;18.70;99.90;;;;;;5051257;28;20339;-71
2022/09/11 09:34:18;;;;;;;6.00;4.70;;;18.80;99.90;;;;;;5053412;28;20129;-71
2022/09/11 09:37:12;;;;;;;6.63;5.07;;;18.80;99.90;;;;;;5051351;28;20076;-71
2022/09/11 09:39:38;;;;;;;7.57;5.05;;;18.90;99.90;;;;;;5044548;28;20406;-76
2022/09/11 09:42:29;;;;;;;5.93;4.47;;;19.00;99.90;;;;;;5024560;28;20108;-71
2022/09/11 09:45:14;;;;;;;7.55;5.35;;;19.10;99.90;;;;;;5045741;28;20056;-70
2022/09/11 09:47:43;;;;;;;7.88;4.95;;;19.30;99.90;;;;;;5043843;28;20049;-70
2022/09/11 09:50:19;;;;;;;7.03;4.53;;;19.30;99.90;;;;;;5033871;28;20448;-70
2022/09/11 09:52:47;;;;;;;7.55;4.63;;;19.50;99.90;;;;;;5033337;28;20135;-70
2022/09/11 09:55:15;;;;;;;6.05;3.72;;;19.50;99.90;;;;;;5052950;28;20060;-71
2022/09/11 09:57:42;;;;;;;5.75;3.92;;;19.60;99.90;;;;;;5051231;28;20055;-73
2022/09/11 10:00:08;;;;;;;7.75;4.38;;;19.70;99.90;;;;;;5050983;28;20126;-69
2022/09/11 10:02:53;;;;;;;6.78;4.47;;;19.70;99.90;;;;;;5052725;28;20120;-73
2022/09/11 10:05:31;;;;;;;6.07;4.10;;;19.70;99.90;;;;;;5051044;28;20052;-71
2022/09/11 10:08:04;;;;;;;7.75;3.50;;;19.80;99.90;;;;;;5051101;28;20451;-70
2022/09/11 10:10:38;;;;;;;4.50;3.95;;;19.70;99.90;;;;;;5051648;28;20506;-70
2022/09/11 10:13:12;;;;;;;4.75;3.78;;;19.60;99.90;;;;;;5042515;28;20451;-70
2022/09/11 10:15:38;;;;;;;7.18;4.50;;;19.50;99.90;;;;;;5050883;28;20045;-70
2022/09/11 10:18:32;;;;;;;6.60;4.65;;;19.40;99.90;;;;;;5050961;28;20463;-72
2022/09/11 10:21:32;;;;;;;9.95;4.43;;;19.30;99.90;;;;;;5045519;28;20356;-70
2022/09/11 10:24:25;;;;;;;5.82;4.28;;;19.20;99.90;;;;;;5045556;28;20371;-71
2022/09/11 10:26:53;;;;;;;7.40;4.28;;;19.30;99.90;;;;;;5025111;28;20077;-71
2022/09/11 10:29:25;;;;;;;5.00;4.07;;;19.30;99.90;;;;;;5031494;28;20056;-72
2022/09/11 10:32:04;;;;;;;7.38;4.32;;;19.30;99.90;;;;;;5030727;28;20144;-71
2022/09/11 10:34:39;;;;;;;6.53;4.13;;;19.30;99.90;;;;;;5031658;28;20041;-71
2022/09/11 10:37:12;;;;;;;5.40;4.25;;;19.40;99.90;;;;;;5023119;28;20460;-70
2022/09/11 10:39:40;;;;;;;5.00;3.80;;;19.40;99.90;;;;;;5032952;28;20076;-71
2022/09/11 10:42:27;;;;;;;4.78;4.03;;;19.40;99.90;;;;;;5034363;28;20045;-71
2022/09/11 10:45:00;;;;;;;5.15;3.70;;;19.50;99.90;;;;;;5035962;28;20363;-71
2022/09/11 10:47:28;;;;;;;5.30;3.90;;;19.60;99.90;;;;;;5029499;28;20037;-71
2022/09/11 10:50:17;;;;;;;5.15;3.85;;;19.60;99.90;;;;;;5019590;28;20757;-71
2022/09/11 10:53:12;;;;;;;3.67;3.35;;;19.80;99.90;;;;;;5019558;28;20728;-72
2022/09/11 10:55:43;;;;;;;4.28;3.20;;;19.80;99.90;;;;;;5011635;28;20137;-69
2022/09/11 10:58:21;;;;;;;5.07;3.28;;;20.00;99.90;;;;;;5019023;28;20045;-70
2022/09/11 11:00:48;;;;;;;5.57;3.60;;;20.10;99.90;;;;;;5019802;28;20204;-72
2022/09/11 11:03:21;;;;;;;6.50;3.83;;;20.10;99.90;;;;;;5020010;28;20053;-70
2022/09/11 11:06:12;;;;;;;6.78;3.60;;;20.40;99.90;;;;;;5018824;28;20396;-70
2022/09/11 11:08:56;;;;;;;6.38;3.70;;;20.30;99.90;;;;;;5026410;28;20049;-70
2022/09/11 11:12:01;;;;;;;4.65;3.40;;;20.40;99.90;;;;;;5029147;28;20054;-70
2022/09/11 11:14:27;;;;;;;;;;;20.50;99.90;;;;;;4971188;28;20059;-70
2022/09/11 11:17:06;;;;;;;4.40;3.10;;;20.70;99.90;;;;;;5037287;28;20379;-70
2022/09/11 11:19:43;;;;;;;4.13;3.20;;;20.80;99.90;;;;;;5037072;28;20060;-70
2022/09/11 11:22:39;;;;;;;8.55;3.53;;;20.80;99.90;;;;;;5037192;28;20077;-70
2022/09/11 11:25:21;;;;;;;5.38;3.20;;;20.80;99.90;;;;;;5042594;28;20053;-69
2022/09/11 11:27:59;;;;;;;4.68;3.35;;;20.60;99.90;;;;;;5056544;28;20065;-70
2022/09/11 11:30:32;;;;;;;5.90;3.40;;;20.60;99.90;;;;;;5053443;28;20473;-70
2022/09/11 11:33:00;;;;;;;7.13;4.03;;;20.60;99.90;;;;;;5036816;28;20073;-70
2022/09/11 11:35:43;;;;;;;3.80;3.20;;;20.50;99.90;;;;;;5036711;28;20082;-70
2022/09/11 11:38:42;;;;;;;5.32;3.35;;;20.50;99.90;;;;;;5036518;28;20092;-70
2022/09/11 11:41:21;;;;;;;5.63;3.15;;;20.50;99.90;;;;;;5036804;28;20041;-70
2022/09/11 11:43:49;;;;;;;4.72;3.63;;;20.40;99.90;;;;;;5036242;28;20468;-70
2022/09/11 11:46:22;;;;;;;5.35;3.17;;;20.50;99.90;;;;;;5036726;28;20045;-70
2022/09/11 11:48:48;;;;;;;7.05;3.58;;;20.60;99.90;;;;;;5036403;28;20057;-70
2022/09/11 11:51:19;;;;;;;6.70;3.63;;;20.60;99.90;;;;;;5036007;28;20467;-71
2022/09/11 11:54:11;;;;;;;5.63;3.90;;;20.70;99.90;;;;;;5036281;28;20045;-70
2022/09/11 11:56:47;;;;;;;7.95;3.70;;;20.80;99.90;;;;;;5036430;28;20038;-70
2022/09/11 11:59:31;;;;;;;5.50;3.40;;;20.80;99.90;;;;;;5036217;28;20051;-70
2022/09/11 12:02:11;;;;;;;5.50;3.30;;;20.90;99.90;;;;;;5036230;28;20353;-70
2022/09/11 12:04:52;;;;;;;4.90;3.50;;;20.90;99.90;;;;;;5036147;28;20108;-70
2022/09/11 12:07:38;;;;;;;6.22;3.33;;;21.00;99.90;;;;;;5041975;28;20483;-70
2022/09/11 12:10:06;;;;;;;3.97;3.58;;;21.20;99.90;;;;;;5055695;28;20456;-71
2022/09/11 12:12:48;;;;;;;5.68;3.13;;;21.30;99.90;;;;;;5055808;28;20133;-70
2022/09/11 12:15:23;;;;;;;4.72;3.50;;;21.50;99.90;;;;;;5056240;28;20037;-70
2022/09/11 12:18:09;;;;;;;5.90;3.60;;;21.60;99.90;;;;;;5055580;28;20053;-70
2022/09/11 12:20:41;;;;;;;4.35;3.38;;;21.60;99.90;;;;;;5055907;28;20045;-71
2022/09/11 12:23:30;;;;;;;5.25;3.28;;;21.60;99.90;;;;;;5055843;28;20055;-70
2022/09/11 12:26:18;;;;;;;7.75;3.92;;;21.50;99.90;;;;;;5055843;28;20060;-72
2022/09/11 12:28:44;;;;;;;6.50;3.80;;;21.40;99.90;;;;;;5054237;28;20056;-74
2022/09/11 12:31:12;;;;;;;6.45;3.63;;;21.30;99.90;;;;;;5048359;28;20041;-74
2022/09/11 12:33:49;;;;;;;5.07;3.70;;;21.40;99.90;;;;;;5035839;28;20049;-74
2022/09/11 12:36:35;;;;;;;5.60;3.30;;;21.50;99.90;;;;;;5035686;28;20093;-73
2022/09/11 12:39:16;;;;;;;5.72;3.22;;;21.70;99.90;;;;;;5017434;28;20130;-73
2022/09/11 12:41:41;;;;;;;4.97;3.30;;;21.80;99.90;;;;;;5035254;28;20468;-74
2022/09/11 12:44:28;;;;;;;5.75;3.60;;;21.90;99.90;;;;;;5035509;28;20052;-74
2022/09/11 12:46:53;;;;;;;5.40;3.33;;;21.70;99.90;;;;;;5035668;28;20052;-74
2022/09/11 12:49:22;;;;;;;5.78;4.07;;;21.70;99.90;;;;;;5035251;28;20037;-71
2022/09/11 12:51:53;;;;;;;6.57;3.38;;;21.70;99.90;;;;;;5035407;28;20124;-73
2022/09/11 12:54:38;;;;;;;6.57;3.97;;;21.80;99.90;;;;;;5035459;28;20068;-72
2022/09/11 12:57:11;;;;;;;6.32;3.67;;;21.90;99.90;;;;;;5035497;28;20053;-72
2022/09/11 12:59:41;;;;;;;4.80;3.70;;;22.20;99.90;;;;;;5035404;28;20185;-74
2022/09/11 13:02:27;;;;;;;3.95;3.35;;;22.20;99.90;;;;;;5034733;28;20060;-74